Norway Center, South Dakota
Current Conditions -  °F | °C
As of 6:15 AM on Thursday 18 Dec 2014 (Local Time) from KORC Reporting Station
Overcast Overcast  
Wind Chill: -11°   Ceiling: 8000
Heat Index: -6°   Visibility: 10mi
Dew Point: -8°   Wind: 7mph
Humidity: 86%   Direction: 120°ESE
Pressure: 30.22"   Gusts: NA
Location:  43.1282°N, 96.5674°W
Report Text: KORC 181215Z AUTO 12006KT 10SM OVC080 M06/M08 A3022 RMK AO2
Loading
Personal Weather Stations






























Interactive Weather Map New forecast layout! Learn more

10-Day Weather Forecast

Advertisements
Track Severe Weather on mobile